Etusivu
METAR-TAF:

METAR-TAF

Lentoasemat :

Utin lentoasema

Utti, Suomi

Leveyspiiri: 60-54N, Pituuspiiri: 026-56E, korkeus merenpinnasta: 100 m

Tämänhetkinen sää

Tämä raportti tehtiin 14 minuuttia sitten, kello 15.50 UTC
Tuuli 7 kn kaakosta
Lämpötila 15°C
Kosteus 82%
Ilmanpaine 1002 hPa
Näkyvyys 10 km tai enemmän
Pilvistä 1500 ft:n korkeudessa

METAR: EFUT 211550Z AUTO 13007KT 9999 OVC015 15/12 Q1002

Aika: 19:04 (16:04 UTC)

Sääennuste

Tämä raportti tehtiin 13 tuntia ja 33 minuuttia sitten, kello 02.31 UTC
Ennuste voimassa 21. päivästä klo 03 UTC - 21. päivään klo 12 UTC
Tuuli 3 kn etelästä
Näkyvyys 10 km tai enemmän
ei pilviä alle 1500 m:ssä eikä cumulonimbus-pilviä

TAF: EFUT 210231Z 2103/2112 18003KT CAVOK

Säähavainnot ja -ennusteet yli 4000 lentoasemalta (METAR- ja TAF-raportit).

Käytössä olevat sääasemat on merkitty karttaan keltaisilla ja punaisilla pisteillä.

Aseta hiiri pisteen päälle nähdäksesi sääaseman nimen.

Klikkaa sitten nähdäksesi säähavainnot ja -ennusteet.

Kartan vaihtaminen: klikkaa mustalla rastilla varustettuja vihreitä pisteitä, niin voit zoomata sisään; viivalla varustettua vihreää pistettä, niin voit zoomata ulos tai vihreitä nuolia, niin pääset viereisille kartoille.


METAR-TAF: